createdAt,value
2019-02-11T00:02:08.459Z,98558.98
2019-02-11T00:04:55.423Z,98562.39
2019-02-11T00:07:43.634Z,98564.53
2019-02-11T00:10:32.349Z,98580.48
2019-02-11T00:13:19.833Z,98577.63
2019-02-11T00:22:20.458Z,98593.81
2019-02-11T00:25:08.394Z,98588.03
2019-02-11T00:27:58.935Z,98595.88
2019-02-11T00:30:46.373Z,98593.73
2019-02-11T00:33:33.566Z,98615.38
2019-02-11T00:39:28.659Z,98623.37
2019-02-11T00:42:16.037Z,98625.27
2019-02-11T00:45:03.174Z,98631.63
2019-02-11T00:47:50.237Z,98634.25
2019-02-11T00:50:39.417Z,98640.48
2019-02-11T00:53:27.415Z,98641.80
2019-02-11T00:56:18.123Z,98646.09
2019-02-11T00:59:05.326Z,98657.42
2019-02-11T01:05:03.983Z,98670.50
2019-02-11T01:07:51.102Z,98688.33
2019-02-11T01:10:38.482Z,98682.14
2019-02-11T01:19:38.091Z,98715.34
2019-02-11T01:22:25.518Z,98726.75
2019-02-11T01:25:13.528Z,98736.16
2019-02-11T01:28:04.697Z,98750.34
2019-02-11T01:30:52.203Z,98754.46
2019-02-11T01:33:39.290Z,98760.38
2019-02-11T01:36:27.584Z,98764.15
2019-02-11T01:39:15.018Z,98767.35
2019-02-11T01:42:02.186Z,98789.53
2019-02-11T01:44:49.874Z,98795.70
2019-02-11T01:47:37.237Z,98801.37
2019-02-11T01:50:24.333Z,98803.87
2019-02-11T01:53:12.253Z,98805.63
2019-02-11T01:55:59.741Z,98822.46
2019-02-11T01:58:47.304Z,98831.77
2019-02-11T02:01:35.574Z,98829.99
2019-02-11T02:04:22.566Z,98837.52
2019-02-11T02:07:10.029Z,98845.98
2019-02-11T02:09:57.704Z,98855.14
2019-02-11T02:12:47.358Z,98854.62
2019-02-11T02:15:38.107Z,98870.85
2019-02-11T02:18:26.349Z,98877.03
2019-02-11T02:21:15.121Z,98880.36
2019-02-11T02:24:03.153Z,98894.17
2019-02-11T02:26:50.397Z,98902.46
2019-02-11T02:29:37.401Z,98916.00
2019-02-11T02:32:24.753Z,98914.55
2019-02-11T02:35:12.191Z,98904.83
2019-02-11T02:37:59.401Z,98939.33
2019-02-11T02:40:47.798Z,98935.79
2019-02-11T02:43:35.854Z,98949.94
2019-02-11T02:46:23.283Z,98951.80
2019-02-11T02:49:10.862Z,98967.87
2019-02-11T02:55:04.799Z,98976.45
2019-02-11T02:57:51.858Z,98992.50
2019-02-11T03:00:39.272Z,98997.42
2019-02-11T03:03:40.630Z,99011.80
2019-02-11T03:06:27.699Z,99027.67
2019-02-11T03:12:21.328Z,99040.09
2019-02-11T03:15:08.844Z,99035.51
2019-02-11T03:17:56.902Z,99041.91
2019-02-11T03:20:44.918Z,99051.28
2019-02-11T03:23:32.028Z,99054.80
2019-02-11T03:26:20.027Z,99068.86
2019-02-11T03:29:07.304Z,99080.10
2019-02-11T03:31:54.527Z,99090.45
2019-02-11T03:34:41.658Z,99101.65
2019-02-11T03:37:28.915Z,99120.06
2019-02-11T03:43:25.364Z,99124.62
2019-02-11T03:46:13.431Z,99145.78
2019-02-11T03:49:04.166Z,99137.28
2019-02-11T03:51:51.792Z,99152.95
2019-02-11T03:54:39.030Z,99156.52
2019-02-11T04:00:35.487Z,99180.09
2019-02-11T04:03:22.670Z,99190.86
2019-02-11T04:06:09.872Z,99188.59
2019-02-11T04:08:56.789Z,99203.03
2019-02-11T04:14:53.379Z,99211.48
2019-02-11T04:17:40.974Z,99208.28
2019-02-11T04:20:28.144Z,99206.69
2019-02-11T04:23:30.257Z,99213.58
2019-02-11T04:26:17.498Z,99217.98
2019-02-11T04:32:12.595Z,99249.93
2019-02-11T04:38:07.499Z,99249.01
2019-02-11T04:40:54.457Z,99260.74
2019-02-11T04:43:42.031Z,99270.61
2019-02-11T04:46:31.846Z,99273.33
2019-02-11T04:55:31.288Z,99285.09
2019-02-11T05:04:32.250Z,99301.20
2019-02-11T05:07:19.063Z,99308.66
2019-02-11T05:10:12.036Z,99314.08
2019-02-11T05:13:04.718Z,99317.08
2019-02-11T05:15:51.962Z,99326.98
2019-02-11T05:18:38.978Z,99331.29
2019-02-11T05:24:32.973Z,99348.22
2019-02-11T05:27:20.418Z,99348.30
2019-02-11T05:30:07.849Z,99355.71
2019-02-11T05:42:14.613Z,99372.69
2019-02-11T05:45:01.924Z,99380.46
2019-02-11T05:47:48.747Z,99388.55
2019-02-11T05:50:36.111Z,99396.72
2019-02-11T05:56:29.920Z,99414.08
2019-02-11T05:59:17.096Z,99420.55
2019-02-11T06:05:10.190Z,99431.48
2019-02-11T06:07:58.145Z,99438.59
2019-02-11T06:10:45.321Z,99446.36
2019-02-11T06:13:32.447Z,99446.02
2019-02-11T06:22:32.310Z,99463.61
2019-02-11T06:25:19.936Z,99470.41
2019-02-11T06:28:13.944Z,99473.92
2019-02-11T06:31:16.203Z,99483.83
2019-02-11T06:34:04.638Z,99480.26
2019-02-11T06:36:51.739Z,99489.51
2019-02-11T06:39:39.373Z,99485.48
2019-02-11T06:42:26.655Z,99499.59
2019-02-11T06:45:13.696Z,99507.98
2019-02-11T06:48:16.096Z,99521.92
2019-02-11T06:51:03.204Z,99528.70
2019-02-11T06:53:50.504Z,99537.38
2019-02-11T06:56:45.253Z,99538.56
2019-02-11T06:59:35.227Z,99559.31
2019-02-11T07:02:37.049Z,99574.01
2019-02-11T07:05:24.282Z,99576.95
2019-02-11T07:08:12.453Z,99586.10
2019-02-11T07:17:11.765Z,99612.84
2019-02-11T07:26:27.285Z,99625.95
2019-02-11T07:29:14.353Z,99624.28
2019-02-11T07:35:07.551Z,99626.74
2019-02-11T07:41:01.214Z,99639.58
2019-02-11T07:43:51.493Z,99635.89
2019-02-11T07:46:39.263Z,99658.48
2019-02-11T07:49:26.568Z,99657.47
2019-02-11T07:52:13.819Z,99663.61
2019-02-11T07:55:00.954Z,99670.98
2019-02-11T07:58:02.486Z,99677.69
2019-02-11T08:00:49.861Z,99675.15
2019-02-11T08:03:37.225Z,99695.13
2019-02-11T08:09:31.528Z,99703.61
2019-02-11T08:15:24.894Z,99711.95
2019-02-11T08:21:18.383Z,99709.20
2019-02-11T08:33:24.963Z,99737.57
2019-02-11T08:36:11.921Z,99746.78
2019-02-11T08:42:07.054Z,99743.04
2019-02-11T08:44:54.537Z,99760.69
2019-02-11T08:47:41.969Z,99763.23
2019-02-11T08:53:35.377Z,99771.59
2019-02-11T09:02:40.202Z,99791.02
2019-02-11T09:05:34.688Z,99783.62
2019-02-11T09:08:21.677Z,99796.03
2019-02-11T09:11:08.880Z,99802.30
2019-02-11T09:13:56.409Z,99791.64
2019-02-11T09:16:43.910Z,99793.84
2019-02-11T09:19:31.054Z,99811.52
2019-02-11T09:25:38.909Z,99824.13
2019-02-11T09:28:26.114Z,99817.78
2019-02-11T09:34:19.467Z,99829.42
2019-02-11T09:43:19.520Z,99847.04
2019-02-11T09:46:06.893Z,99854.31
2019-02-11T09:48:54.085Z,99848.67
2019-02-11T09:51:45.170Z,99858.52
2019-02-11T09:54:32.712Z,99864.00
2019-02-11T09:57:19.807Z,99870.41
2019-02-11T10:00:06.987Z,99887.70
2019-02-11T10:02:54.249Z,99880.52
2019-02-11T10:05:41.764Z,99889.02
2019-02-11T10:08:28.925Z,99897.34
2019-02-11T10:14:22.376Z,99914.80
2019-02-11T10:17:10.212Z,99906.56
2019-02-11T10:19:59.149Z,99913.02
2019-02-11T10:22:46.090Z,99923.55
2019-02-11T10:25:33.393Z,99918.48
2019-02-11T10:31:26.858Z,99942.11
2019-02-11T10:34:14.120Z,99944.68
2019-02-11T10:37:01.142Z,99944.08
2019-02-11T10:42:54.763Z,99953.01
2019-02-11T10:45:41.960Z,99957.77
2019-02-11T10:51:35.593Z,100013.53
2019-02-11T10:54:37.302Z,100022.19
2019-02-11T10:57:24.794Z,100040.61
2019-02-11T11:00:19.370Z,100033.19
2019-02-11T11:03:06.997Z,100022.91
2019-02-11T11:09:00.916Z,100039.22
2019-02-11T11:11:49.003Z,100047.17
2019-02-11T11:17:42.530Z,100054.77
2019-02-11T11:20:30.445Z,100050.46
2019-02-11T11:23:17.595Z,100044.31
2019-02-11T11:26:05.807Z,100050.13
2019-02-11T11:28:52.683Z,100052.79
2019-02-11T11:31:40.089Z,100045.91
2019-02-11T11:34:27.462Z,100061.61
2019-02-11T11:40:24.749Z,100072.62
2019-02-11T11:46:24.272Z,100105.55
2019-02-11T11:49:11.360Z,100101.83
2019-02-11T11:51:58.634Z,100104.48
2019-02-11T11:54:45.963Z,100116.46
2019-02-11T11:57:33.368Z,100109.70
2019-02-11T12:00:30.137Z,100118.84
2019-02-11T12:12:36.146Z,100129.34
2019-02-11T12:15:27.209Z,100134.87
2019-02-11T12:18:14.195Z,100144.51
2019-02-11T12:21:01.724Z,100141.45
2019-02-11T12:26:57.806Z,100156.63
2019-02-11T12:29:45.177Z,100149.00
2019-02-11T12:32:32.578Z,100164.06
2019-02-11T12:41:33.497Z,100162.14
2019-02-11T12:44:20.686Z,100184.89
2019-02-11T12:47:14.204Z,100193.23
2019-02-11T12:50:10.279Z,100194.13
2019-02-11T12:52:57.798Z,100199.59
2019-02-11T12:55:45.590Z,100212.77
2019-02-11T12:58:33.128Z,100212.50
2019-02-11T13:01:20.674Z,100209.28
2019-02-11T13:04:08.110Z,100234.00
2019-02-11T13:10:02.351Z,100208.09
2019-02-11T13:12:49.664Z,100207.73
2019-02-11T13:21:52.113Z,100224.77
2019-02-11T13:24:53.898Z,100227.94
2019-02-11T13:27:41.901Z,100231.16
2019-02-11T13:30:29.410Z,100249.98
2019-02-11T13:39:28.873Z,100254.73
2019-02-11T13:42:16.061Z,100253.07
2019-02-11T13:45:03.116Z,100278.17
2019-02-11T13:47:56.290Z,100284.41
2019-02-11T13:50:37.641Z,100287.06
2019-02-11T13:53:43.372Z,100298.43
2019-02-11T13:56:46.015Z,100304.00
2019-02-11T13:59:33.879Z,100291.64
2019-02-11T14:02:21.161Z,100294.31
2019-02-11T14:05:08.268Z,100308.50
2019-02-11T14:07:55.657Z,100320.01
2019-02-11T14:14:02.269Z,100329.69
2019-02-11T14:16:40.320Z,100329.28
2019-02-11T14:19:34.468Z,100339.55
2019-02-11T14:25:42.384Z,100349.93
2019-02-11T14:28:18.943Z,100350.94
2019-02-11T14:31:06.232Z,100354.20
2019-02-11T14:33:53.822Z,100350.98
2019-02-11T14:36:43.591Z,100372.98
2019-02-11T14:42:34.632Z,100423.73
2019-02-11T14:45:21.881Z,100457.73
2019-02-11T14:48:27.032Z,100454.20
2019-02-11T14:50:58.981Z,100472.83
2019-02-11T14:53:46.225Z,100459.89
2019-02-11T14:56:33.525Z,100475.79
2019-02-11T15:02:27.516Z,100486.39
2019-02-11T15:05:14.770Z,100489.44
2019-02-11T15:08:02.667Z,100492.61
2019-02-11T15:11:00.499Z,100506.84
2019-02-11T15:13:47.452Z,100520.03
2019-02-11T15:16:38.157Z,100520.86
2019-02-11T15:19:25.295Z,100534.62
2019-02-11T15:22:12.929Z,100535.05
2019-02-11T15:24:59.941Z,100536.88
2019-02-11T15:28:02.337Z,100544.86
2019-02-11T15:30:50.253Z,100546.94
2019-02-11T15:33:37.463Z,100554.28
2019-02-11T15:36:24.870Z,100548.63
2019-02-11T15:39:12.625Z,100550.56
2019-02-11T15:48:14.081Z,100569.77
2019-02-11T15:51:01.634Z,100578.18
2019-02-11T15:53:48.880Z,100578.95
2019-02-11T15:56:38.864Z,100588.48
2019-02-11T16:05:39.473Z,100597.80
2019-02-11T16:08:26.884Z,100620.16
2019-02-11T16:11:14.068Z,100621.62
2019-02-11T16:14:01.716Z,100624.35
2019-02-11T16:16:48.996Z,100648.17
2019-02-11T16:19:36.751Z,100648.68
2019-02-11T16:22:24.783Z,100659.09
2019-02-11T16:25:13.012Z,100659.19
2019-02-11T16:31:06.798Z,100681.05
2019-02-11T16:33:53.921Z,100692.61
2019-02-11T16:36:44.287Z,100692.62
2019-02-11T16:39:32.531Z,100697.08
2019-02-11T16:42:20.466Z,100697.87
2019-02-11T16:45:08.156Z,100701.47
2019-02-11T16:51:10.199Z,100716.77
2019-02-11T16:53:57.449Z,100720.36
2019-02-11T16:56:47.057Z,100724.44
2019-02-11T16:59:36.535Z,100736.81
2019-02-11T17:02:24.428Z,100741.29
2019-02-11T17:05:27.173Z,100747.83
2019-02-11T17:08:17.435Z,100758.39
2019-02-11T17:11:11.026Z,100770.14
2019-02-11T17:17:04.709Z,100781.16
2019-02-11T17:19:54.592Z,100795.23
2019-02-11T17:22:41.948Z,100795.42
2019-02-11T17:31:42.219Z,100824.96
2019-02-11T17:34:29.479Z,100837.94
2019-02-11T17:37:16.827Z,100842.08
2019-02-11T17:40:04.026Z,100853.59
2019-02-11T17:42:51.198Z,100859.92
2019-02-11T17:45:38.597Z,100865.14
2019-02-11T17:48:25.771Z,100862.66
2019-02-11T17:51:13.174Z,100872.64
2019-02-11T17:54:04.000Z,100882.08
2019-02-11T17:56:50.835Z,100886.61
2019-02-11T17:59:38.746Z,100887.60
2019-02-11T18:02:29.961Z,100895.20
2019-02-11T18:05:17.103Z,100897.86
2019-02-11T18:08:04.380Z,100901.48
2019-02-11T18:10:51.765Z,100910.73
2019-02-11T18:13:41.093Z,100919.48
2019-02-11T18:16:28.143Z,100919.70
2019-02-11T18:19:15.356Z,100932.68
2019-02-11T18:25:10.889Z,100953.97
2019-02-11T18:27:57.943Z,100951.56
2019-02-11T18:33:51.901Z,100960.58
2019-02-11T18:36:40.140Z,100987.23
2019-02-11T18:39:27.516Z,100974.81
2019-02-11T18:42:14.427Z,100984.38
2019-02-11T18:45:09.909Z,100985.05
2019-02-11T18:47:55.845Z,101009.28
2019-02-11T18:50:43.317Z,101014.48
2019-02-11T18:53:30.827Z,101020.34
2019-02-11T18:56:18.956Z,101031.17
2019-02-11T18:59:07.920Z,101029.63
2019-02-11T19:01:55.027Z,101039.41
2019-02-11T19:04:42.373Z,101044.23
2019-02-11T19:07:29.904Z,101055.13
2019-02-11T19:10:17.182Z,101058.87
2019-02-11T19:13:05.552Z,101066.80
2019-02-11T19:19:01.935Z,101087.50
2019-02-11T19:21:52.358Z,101088.00
2019-02-11T19:30:55.767Z,101101.72
2019-02-11T19:33:42.859Z,101109.69
2019-02-11T19:39:37.380Z,101129.31
2019-02-11T19:42:24.701Z,101129.39
2019-02-11T19:45:11.919Z,101123.86
2019-02-11T19:48:06.663Z,101130.51
2019-02-11T19:50:53.667Z,101125.72
2019-02-11T19:53:40.726Z,101130.13
2019-02-11T19:56:27.767Z,101128.91
2019-02-11T19:59:14.969Z,101141.56
2019-02-11T20:02:03.903Z,101151.47
2019-02-11T20:04:51.507Z,101154.04
2019-02-11T20:07:38.720Z,101157.72
2019-02-11T20:10:26.006Z,101161.28
2019-02-11T20:13:14.270Z,101170.92
2019-02-11T20:16:01.287Z,101175.31
2019-02-11T20:18:48.427Z,101167.55
2019-02-11T20:21:35.682Z,101177.20
2019-02-11T20:24:22.753Z,101180.19
2019-02-11T20:27:10.193Z,101190.13
2019-02-11T20:29:57.403Z,101206.86
2019-02-11T20:32:45.051Z,101209.16
2019-02-11T20:35:32.656Z,101210.82
2019-02-11T20:38:19.572Z,101214.68
2019-02-11T20:41:13.930Z,101223.09
2019-02-11T20:44:01.479Z,101231.02
2019-02-11T20:46:48.629Z,101227.63
2019-02-11T20:49:36.718Z,101226.41
2019-02-11T20:52:25.921Z,101241.66
2019-02-11T20:55:11.399Z,101239.09
2019-02-11T20:57:58.885Z,101237.84
2019-02-11T21:00:47.029Z,101242.20
2019-02-11T21:03:33.960Z,101240.05
2019-02-11T21:06:21.197Z,101247.48
2019-02-11T21:09:08.221Z,101244.42
2019-02-11T21:11:55.743Z,101253.20
2019-02-11T21:14:43.063Z,101250.31
2019-02-11T21:20:39.411Z,101255.25
2019-02-11T21:23:27.439Z,101258.77
2019-02-11T21:32:27.338Z,101260.55
2019-02-11T21:35:17.703Z,101271.02
2019-02-11T21:38:04.969Z,101268.92
2019-02-11T21:40:52.086Z,101279.83
2019-02-11T21:43:39.164Z,101271.56
2019-02-11T21:46:26.388Z,101282.90
2019-02-11T21:49:13.374Z,101277.78
2019-02-11T21:55:07.410Z,101268.39
2019-02-11T21:57:55.784Z,101267.92
2019-02-11T22:00:43.062Z,101239.38
2019-02-11T22:03:30.441Z,101269.36
2019-02-11T22:06:20.191Z,101267.61
2019-02-11T22:09:07.488Z,101281.16
2019-02-11T22:11:55.172Z,101283.83
2019-02-11T22:14:43.095Z,101288.22
2019-02-11T22:17:32.978Z,101281.17
2019-02-11T22:20:22.755Z,101291.63
2019-02-11T22:23:11.250Z,101296.50
2019-02-11T22:25:58.269Z,101307.00
2019-02-11T22:28:45.522Z,101313.98
2019-02-11T22:31:32.977Z,101322.23
2019-02-11T22:34:27.663Z,101326.53
2019-02-11T22:37:15.213Z,101338.77
2019-02-11T22:40:02.721Z,101356.63
2019-02-11T22:42:51.573Z,101353.56
2019-02-11T22:45:41.365Z,101354.09
2019-02-11T22:48:28.342Z,101356.78
2019-02-11T22:51:15.402Z,101373.83
2019-02-11T22:54:02.270Z,101380.00
2019-02-11T22:56:49.740Z,101383.06
2019-02-11T22:59:36.756Z,101381.78
2019-02-11T23:02:23.936Z,101383.13
2019-02-11T23:05:11.562Z,101397.94
2019-02-11T23:07:58.642Z,101400.50
2019-02-11T23:13:52.313Z,101407.80
2019-02-11T23:16:40.209Z,101413.88
2019-02-11T23:19:27.447Z,101400.33
2019-02-11T23:22:14.597Z,101395.08
2019-02-11T23:25:01.872Z,101389.45
2019-02-11T23:27:48.827Z,101390.40
2019-02-11T23:33:43.076Z,101411.30
2019-02-11T23:36:31.625Z,101411.83
2019-02-11T23:39:21.182Z,101418.85
2019-02-11T23:42:08.657Z,101401.61
2019-02-11T23:44:55.928Z,101411.22
2019-02-11T23:50:50.240Z,101415.20
2019-02-11T23:53:37.768Z,101415.70
2019-02-11T23:56:24.996Z,101423.63
2019-02-11T23:59:12.232Z,101423.66
